Terminal Aerodrome Forecast
Issued by NWS Buffalo, NY

Home | Current Version | Previous Version | Text Only | Print | Product List | Glossary On
Versions: 1 2 3 4 5 6 7 8 9 10 11 12 13 14 15 16 17 18 19 20 21 22 23 24 25 26
000
FTUS41 KBUF 200300 AAA
TAFROC
TAF AMD
KROC 200301Z 2003/2024 VRB03KT P6SM BKN200
     FM200700 17004KT 6SM -SHRA OVC060
     FM200900 19005KT P6SM VCSH OVC070
     FM201600 17006KT 4SM SHRA VCTS OVC040CB
     FM202000 23007KT 6SM -SHRA OVC040=

USA.gov is the U.S. government's official web portal to all federal, state and local government web resources and services.